Lynn, MA (01902)

9:36 PM EDT on April 25, 2015 (GMT -0400)
Buchanan Circle | | Change Station
CLOSE
Current Station
Personal Weather Station
Location: Lynn, MA
Elevation: 108 ft
Nearby Weather Stations

Elev 108 ft 42.49 °N, 70.94 °W | Updated 1 minute ago

Partly Cloudy
Partly Cloudy
45.9 °F
Feels Like 46 °F
N
0.0
Wind Variable Wind from North
Gusts 1.0 mph

Today
High -- | Low -- °F
--% Chance of Precip.
Yesterday
High -- | Low -- °F
Precip. -- in
5:47 AM 7:36 PM
Waxing Crescent, 51% visible
Pressure 29.71 in
Visibility 10.0 miles
Clouds Clear
Windchill 46 °F
Dew Point 31 °F
Humidity 55%
Rainfall 0.00 in
Snow Depth Not available.
UV 0.0 out of 12
Pollen 10.80 out of 12
Air Quality Not available.
Flu Activity Widespread
METAR KBVY 260053Z AUTO 34008KT 10SM CLR 07/M04 A2972 RMK AO2 SLP061 T00721039

More Conditions Fewer Conditions

Pressure 29.71 in
Visibility 10.0 miles
Clouds Clear
Windchill 46 °F
Dew Point 31 °F
Humidity 55%
Rainfall 0.00 in
Snow Depth Not available.
UV 0.0 out of 12
Pollen 10.80 out of 12
Air Quality Not available.
Flu Activity Widespread
METAR KBVY 260053Z AUTO 34008KT 10SM CLR 07/M04 A2972 RMK AO2 SLP061 T00721039

More Conditions Fewer Conditions

10-Day Weather Forecast

Almanac

Astronomy

Apr. 25, 2015 Rise Set
Actual Time
Civil Twilight
Nautical Twilight
Astronomical Twilight
Moon
Length of Visible Light
Length of Day
Tomorrow will be .
, % of the Moon is Illuminated

Today's Extremes

State Highs State Lows

Community

WunderPhotos

Upload Photos

1,816,890 photos uploaded!

WunderBlogs® & News

Nearby

Air Quality

  Air Quality AQ Index Pollutant
Not available.

Snow Depth

Station Depth Elevation

Earthquake Activity

City Distance Mag. Time & Date
Minimum magnitude displayed is 2.5.

Coastal Water Temperatures

Place Temperature

Stations

Nearby Weather Stations

Station Location Temp. Windchill Dew Point Humidity Wind Precip. Elev Updated Type